Time;durP1;ratioP1;P1;durP2;ratioP2;P2;SDS_P1;SDS_P2;PMS_P1;PMS_P2;Temp;Humidity;BMP_temperature;BMP_pressure;BME280_temperature;BME280_humidity;BME280_pressure;Samples;Min_cycle;Max_cycle;Signal;HPM_P1;HPM_P2
2021/01/01 00:02:03;;;;;;;3.60;2.38;;;3.50;83.50;;;;;;5059473;28;20104;-71
2021/01/01 00:04:29;;;;;;;4.00;2.75;;;3.50;83.60;;;;;;5059410;28;20028;-71
2021/01/01 00:06:56;;;;;;;3.95;2.65;;;3.60;83.30;;;;;;5059355;28;20040;-71
2021/01/01 00:09:22;;;;;;;4.00;2.83;;;3.60;83.90;;;;;;5059369;28;20428;-71
2021/01/01 00:11:51;;;;;;;3.67;3.15;;;3.50;84.10;;;;;;5058247;28;20033;-71
2021/01/01 00:14:17;;;;;;;4.90;3.22;;;3.50;84.40;;;;;;5059492;28;20048;-71
2021/01/01 00:16:44;;;;;;;3.60;2.63;;;3.50;84.40;;;;;;5059413;28;20052;-71
2021/01/01 00:19:11;;;;;;;3.38;2.60;;;3.50;84.90;;;;;;5059410;28;20096;-71
2021/01/01 00:21:37;;;;;;;4.32;3.15;;;3.60;84.80;;;;;;5059182;28;20024;-71
2021/01/01 00:24:03;;;;;;;3.08;2.50;;;3.60;84.70;;;;;;5059071;28;20337;-71
2021/01/01 00:26:29;;;;;;;3.17;2.70;;;3.60;84.70;;;;;;5059053;28;20091;-71
2021/01/01 00:28:55;;;;;;;4.60;2.92;;;3.60;84.90;;;;;;5058979;28;20029;-71
2021/01/01 00:31:23;;;;;;;5.00;2.90;;;3.60;84.90;;;;;;5057875;28;20037;-71
2021/01/01 00:33:50;;;;;;;5.68;3.58;;;3.60;84.80;;;;;;5058884;28;20029;-71
2021/01/01 00:36:17;;;;;;;3.47;2.70;;;3.60;84.70;;;;;;5058731;28;20053;-71
2021/01/01 00:38:50;;;;;;;3.78;3.08;;;3.60;84.60;;;;;;5058926;28;20075;-71
2021/01/01 00:41:25;;;;;;;4.65;3.22;;;3.60;84.40;;;;;;5059030;28;20021;-71
2021/01/01 00:43:53;;;;;;;5.18;3.63;;;3.60;85.10;;;;;;5058881;28;20048;-71
2021/01/01 00:46:19;;;;;;;4.40;3.30;;;3.60;85.00;;;;;;5058616;28;20033;-71
2021/01/01 00:48:44;;;;;;;4.03;3.60;;;3.60;85.00;;;;;;5064719;28;20114;-71
2021/01/01 00:51:10;;;;;;;6.28;3.80;;;3.60;85.10;;;;;;5060827;28;20025;-71
2021/01/01 00:53:36;;;;;;;5.50;3.97;;;3.60;85.50;;;;;;5078926;28;20029;-71
2021/01/01 00:56:01;;;;;;;4.32;3.28;;;3.60;85.80;;;;;;5078211;28;20037;-71
2021/01/01 00:58:27;;;;;;;5.63;3.72;;;3.60;85.90;;;;;;5060197;28;20031;-71
2021/01/01 01:00:53;;;;;;;6.97;4.75;;;3.60;85.50;;;;;;5078381;28;20320;-71
2021/01/01 01:03:18;;;;;;;4.50;3.72;;;3.70;85.60;;;;;;5078503;28;20024;-71
2021/01/01 01:05:44;;;;;;;5.22;3.38;;;3.70;85.60;;;;;;5078304;28;20031;-71
2021/01/01 01:08:09;;;;;;;5.30;3.45;;;3.70;85.20;;;;;;5078320;28;20016;-71
2021/01/01 01:10:35;;;;;;;5.13;3.47;;;3.70;85.70;;;;;;5078494;28;20099;-71
2021/01/01 01:13:01;;;;;;;3.78;3.10;;;3.70;85.70;;;;;;5078374;28;20452;-71
2021/01/01 01:15:27;;;;;;;5.25;3.67;;;3.70;85.80;;;;;;5078218;28;20421;-71
2021/01/01 01:17:52;;;;;;;4.55;3.08;;;3.70;85.90;;;;;;5077993;28;20021;-71
2021/01/01 01:20:18;;;;;;;4.10;3.25;;;3.60;85.90;;;;;;5078214;28;20123;-71
2021/01/01 01:22:44;;;;;;;3.75;3.10;;;3.60;86.30;;;;;;5077848;28;20112;-71
2021/01/01 01:25:10;;;;;;;4.95;3.20;;;3.60;86.30;;;;;;5078158;28;20029;-71
2021/01/01 01:27:35;;;;;;;4.25;2.72;;;3.60;86.40;;;;;;5077930;28;20021;-71
2021/01/01 01:30:03;;;;;;;4.47;3.30;;;3.50;85.90;;;;;;5077767;28;20032;-71
2021/01/01 01:32:29;;;;;;;3.40;2.70;;;3.40;85.80;;;;;;5077894;28;20027;-71
2021/01/01 01:34:55;;;;;;;3.88;2.80;;;3.40;85.40;;;;;;5059968;28;20115;-71
2021/01/01 01:37:20;;;;;;;3.25;2.83;;;3.30;84.90;;;;;;5077895;28;20024;-71
2021/01/01 01:39:46;;;;;;;3.22;2.60;;;3.30;85.10;;;;;;5077616;28;20036;-71
2021/01/01 01:42:12;;;;;;;2.85;2.25;;;3.40;83.30;;;;;;5077450;28;20058;-71
2021/01/01 01:44:38;;;;;;;3.38;2.60;;;3.40;82.10;;;;;;5059728;28;20032;-71
2021/01/01 01:47:05;;;;;;;4.78;2.45;;;3.40;80.80;;;;;;5077732;28;20405;-71
2021/01/01 01:49:32;;;;;;;2.90;2.10;;;3.40;80.20;;;;;;5077378;28;20053;-71
2021/01/01 01:51:58;;;;;;;3.65;2.35;;;3.50;80.20;;;;;;5077602;28;20024;-71
2021/01/01 01:54:25;;;;;;;2.55;2.08;;;3.60;79.50;;;;;;5059489;28;20037;-71
2021/01/01 01:56:52;;;;;;;3.33;2.67;;;3.50;79.50;;;;;;5077470;28;20028;-71
2021/01/01 01:59:19;;;;;;;3.75;3.15;;;3.50;79.40;;;;;;5077205;28;20035;-71
2021/01/01 02:01:45;;;;;;;2.85;2.08;;;3.50;79.40;;;;;;5059482;28;20023;-71
2021/01/01 02:04:11;;;;;;;3.40;2.85;;;3.50;79.40;;;;;;5077238;28;20024;-71
2021/01/01 02:06:37;;;;;;;2.85;2.20;;;3.50;79.20;;;;;;5077035;28;20021;-71
2021/01/01 02:09:03;;;;;;;3.13;2.50;;;3.60;79.70;;;;;;5076299;28;20055;-71
2021/01/01 02:11:32;;;;;;;2.75;2.33;;;3.70;79.00;;;;;;5059311;28;20017;-71
2021/01/01 02:13:58;;;;;;;1.90;1.70;;;3.80;79.10;;;;;;5077196;28;20371;-71
2021/01/01 02:16:27;;;;;;;2.92;1.80;;;3.70;78.90;;;;;;5077973;28;20330;-71
2021/01/01 02:18:53;;;;;;;2.60;1.80;;;3.70;79.50;;;;;;5077197;28;20020;-71
2021/01/01 02:21:19;;;;;;;2.45;2.00;;;3.70;80.60;;;;;;5077033;28;20451;-71
2021/01/01 02:23:45;;;;;;;2.80;1.80;;;3.80;80.80;;;;;;5077141;28;20055;-71
2021/01/01 02:26:11;;;;;;;2.00;1.65;;;3.70;81.40;;;;;;5076788;28;20099;-71
2021/01/01 02:28:37;;;;;;;2.78;1.80;;;3.70;81.90;;;;;;5077113;28;20421;-71
2021/01/01 02:31:04;;;;;;;2.80;2.17;;;3.60;82.30;;;;;;5076799;28;20096;-71
2021/01/01 02:33:30;;;;;;;3.00;2.42;;;3.60;82.80;;;;;;5076853;28;20024;-71
2021/01/01 02:35:56;;;;;;;3.03;2.47;;;3.50;83.00;;;;;;5076633;28;20021;-71
2021/01/01 02:38:21;;;;;;;4.57;2.30;;;3.50;83.40;;;;;;5076655;28;20024;-71
2021/01/01 02:40:47;;;;;;;2.92;2.03;;;3.40;84.00;;;;;;5076902;28;20047;-71
2021/01/01 02:43:13;;;;;;;3.00;2.10;;;3.50;84.50;;;;;;5076673;28;20106;-71
2021/01/01 02:45:38;;;;;;;2.63;2.10;;;3.50;84.50;;;;;;5076603;28;20362;-71
2021/01/01 02:48:22;;;;;;;4.05;2.10;;;3.50;84.50;;;;;;5076401;28;20048;-71
2021/01/01 02:50:48;;;;;;;3.25;2.35;;;3.50;84.60;;;;;;5076905;28;20103;-71
2021/01/01 02:53:14;;;;;;;4.00;2.60;;;3.50;84.20;;;;;;5076614;28;20372;-71
2021/01/01 02:55:40;;;;;;;3.88;2.75;;;3.50;84.50;;;;;;5076424;28;20078;-71
2021/01/01 02:58:06;;;;;;;3.17;2.83;;;3.40;84.20;;;;;;5076578;28;20379;-71
2021/01/01 03:00:34;;;;;;;4.55;3.38;;;3.40;85.00;;;;;;5076517;28;20036;-71
2021/01/01 03:03:00;;;;;;;4.18;2.70;;;3.40;84.90;;;;;;5076400;28;20031;-71
2021/01/01 03:05:25;;;;;;;3.22;2.55;;;3.50;85.40;;;;;;5058663;28;20012;-71
2021/01/01 03:07:51;;;;;;;3.38;3.08;;;3.50;85.60;;;;;;5076404;28;20028;-71
2021/01/01 03:10:18;;;;;;;3.47;2.50;;;3.40;85.70;;;;;;5076741;28;20024;-71
2021/01/01 03:12:43;;;;;;;2.97;2.33;;;3.40;85.80;;;;;;5076414;28;20028;-71
2021/01/01 03:15:10;;;;;;;2.25;2.00;;;3.40;85.90;;;;;;5076596;28;20051;-71
2021/01/01 03:17:35;;;;;;;2.58;1.85;;;3.40;85.30;;;;;;5076227;28;20131;-71
2021/01/01 03:20:01;;;;;;;3.00;1.75;;;3.40;84.80;;;;;;5077344;28;20090;-71
2021/01/01 03:22:27;;;;;;;2.10;1.70;;;3.40;84.10;;;;;;5080210;28;20154;-71
2021/01/01 03:24:52;;;;;;;2.30;1.60;;;3.40;83.10;;;;;;5080094;28;20021;-71
2021/01/01 03:27:18;;;;;;;3.13;1.98;;;3.40;82.50;;;;;;5062429;28;20025;-71
2021/01/01 03:29:44;;;;;;;3.25;1.90;;;3.40;83.20;;;;;;5080122;28;20031;-71
2021/01/01 03:32:09;;;;;;;4.20;1.75;;;3.40;83.30;;;;;;5062346;28;20028;-71
2021/01/01 03:34:36;;;;;;;3.22;2.17;;;3.40;84.00;;;;;;5080031;28;20024;-71
2021/01/01 03:37:01;;;;;;;2.75;1.98;;;3.40;84.90;;;;;;5079869;28;20029;-71
2021/01/01 03:39:27;;;;;;;2.53;1.85;;;3.30;84.80;;;;;;5079939;28;20082;-71
2021/01/01 03:41:53;;;;;;;2.53;1.85;;;3.30;85.30;;;;;;5080085;28;20032;-71
2021/01/01 03:44:19;;;;;;;2.70;2.25;;;3.20;85.00;;;;;;5080032;28;20047;-71
2021/01/01 03:46:44;;;;;;;3.25;2.60;;;3.20;84.90;;;;;;5079838;28;20432;-71
2021/01/01 03:49:10;;;;;;;4.03;2.75;;;3.10;84.90;;;;;;5079456;28;20049;-71
2021/01/01 03:51:36;;;;;;;3.33;2.30;;;3.10;84.90;;;;;;5079696;28;20077;-71
2021/01/01 03:54:01;;;;;;;2.25;1.48;;;3.10;84.60;;;;;;5079859;28;20036;-71
2021/01/01 03:56:27;;;;;;;1.90;1.20;;;3.20;83.20;;;;;;5079510;28;20146;-71
2021/01/01 03:58:52;;;;;;;2.10;1.67;;;3.20;80.10;;;;;;5079796;28;20025;-71
2021/01/01 04:01:18;;;;;;;2.22;1.48;;;3.40;78.50;;;;;;5079555;28;20094;-71
2021/01/01 04:03:44;;;;;;;2.45;1.50;;;3.40;78.10;;;;;;5061770;28;20102;-71
2021/01/01 04:06:09;;;;;;;2.05;1.30;;;3.50;77.30;;;;;;5079411;28;20071;-71
2021/01/01 04:08:36;;;;;;;3.17;1.95;;;3.60;76.20;;;;;;5079396;28;20057;-71
2021/01/01 04:11:02;;;;;;;5.32;4.43;;;3.60;76.50;;;;;;5079365;28;20020;-71
2021/01/01 04:13:27;;;;;;;7.07;5.28;;;3.70;80.70;;;;;;5061621;28;20265;-71
2021/01/01 04:15:53;;;;;;;6.07;5.32;;;3.70;81.70;;;;;;5079120;28;20028;-71
2021/01/01 04:18:19;;;;;;;6.43;5.50;;;3.80;81.80;;;;;;5079481;28;20024;-71
2021/01/01 04:20:44;;;;;;;3.60;2.25;;;3.80;81.70;;;;;;5079116;28;20321;-71
2021/01/01 04:23:10;;;;;;;2.60;1.70;;;3.70;78.10;;;;;;5061303;28;20031;-71
2021/01/01 04:25:36;;;;;;;3.13;2.83;;;3.70;76.70;;;;;;5079364;28;20039;-71
2021/01/01 04:28:01;;;;;;;3.80;2.90;;;3.60;79.30;;;;;;5079302;28;20017;-71
2021/01/01 04:30:27;;;;;;;4.53;3.38;;;3.50;82.00;;;;;;5079019;28;20337;-71
2021/01/01 04:32:53;;;;;;;4.47;3.45;;;3.40;83.20;;;;;;5060138;28;20416;-71
2021/01/01 04:35:18;;;;;;;4.80;3.50;;;3.40;83.90;;;;;;5078907;28;20331;-71
2021/01/01 04:37:44;;;;;;;4.43;3.15;;;3.30;83.80;;;;;;5078800;28;20476;-71
2021/01/01 04:40:10;;;;;;;3.72;3.05;;;3.20;84.50;;;;;;5079075;28;20027;-71
2021/01/01 04:42:36;;;;;;;3.80;3.38;;;3.20;84.40;;;;;;5078780;28;20024;-71
2021/01/01 04:45:07;;;;;;;3.83;2.88;;;3.20;84.40;;;;;;5078688;28;20024;-71
2021/01/01 04:47:33;;;;;;;3.53;2.90;;;3.10;85.30;;;;;;5078669;28;20033;-71
2021/01/01 04:50:03;;;;;;;4.95;3.65;;;3.20;86.40;;;;;;5078475;28;20044;-71
2021/01/01 04:52:33;;;;;;;3.80;3.10;;;3.20;85.30;;;;;;5078487;28;20059;-71
2021/01/01 04:55:00;;;;;;;3.60;2.90;;;3.20;84.70;;;;;;5078490;28;20119;-71
2021/01/01 04:57:29;;;;;;;4.32;3.55;;;3.20;84.20;;;;;;5078617;28;20020;-71
2021/01/01 04:59:55;;;;;;;6.03;4.03;;;3.20;85.00;;;;;;5078452;28;20048;-71
2021/01/01 05:02:20;;;;;;;4.38;3.90;;;3.20;85.00;;;;;;5078325;28;20020;-71
2021/01/01 05:04:47;;;;;;;4.38;3.63;;;3.30;84.70;;;;;;5078277;28;20029;-71
2021/01/01 05:07:20;;;;;;;6.03;4.45;;;3.30;84.00;;;;;;5078616;28;20028;-71
2021/01/01 05:09:48;;;;;;;4.68;3.33;;;3.30;84.20;;;;;;5078479;28;20036;-71
2021/01/01 05:12:14;;;;;;;4.88;3.92;;;3.30;84.60;;;;;;5078216;28;20031;-71
2021/01/01 05:14:41;;;;;;;4.45;3.47;;;3.30;84.70;;;;;;5078114;28;20021;-71
2021/01/01 05:17:08;;;;;;;4.40;3.92;;;3.30;84.70;;;;;;5078292;28;20028;-71
2021/01/01 05:19:40;;;;;;;5.32;4.13;;;3.30;84.50;;;;;;5078031;28;20026;-71
2021/01/01 05:22:08;;;;;;;6.30;4.75;;;3.30;85.40;;;;;;5078256;28;20024;-71
2021/01/01 05:24:37;;;;;;;6.57;5.40;;;3.30;86.20;;;;;;5078357;28;20032;-71
2021/01/01 05:27:14;;;;;;;4.50;4.05;;;3.20;85.50;;;;;;5078185;28;20029;-71
2021/01/01 05:29:58;;;;;;;5.75;4.55;;;3.30;85.50;;;;;;5077848;28;20040;-71
2021/01/01 05:32:25;;;;;;;6.07;3.85;;;3.20;85.20;;;;;;5078016;28;20340;-71
2021/01/01 05:34:51;;;;;;;4.78;3.90;;;3.20;84.80;;;;;;5077671;28;20055;-71
2021/01/01 05:37:26;;;;;;;5.50;4.35;;;3.20;84.80;;;;;;5077651;28;20074;-71
2021/01/01 05:40:05;;;;;;;3.55;3.00;;;3.20;84.90;;;;;;5059943;28;20036;-71
2021/01/01 05:42:31;;;;;;;3.13;2.33;;;3.20;82.80;;;;;;5077668;28;20021;-71
2021/01/01 05:44:56;;;;;;;2.92;2.08;;;3.20;81.60;;;;;;5059773;28;20290;-71
2021/01/01 05:47:22;;;;;;;3.00;2.25;;;3.20;79.40;;;;;;5077456;28;20026;-71
2021/01/01 05:49:48;;;;;;;2.33;1.88;;;3.20;79.20;;;;;;5077267;28;20074;-71
2021/01/01 05:52:18;;;;;;;3.63;2.20;;;3.10;78.50;;;;;;5077426;28;20107;-71
2021/01/01 05:54:50;;;;;;;4.28;2.10;;;3.10;78.80;;;;;;5077765;28;20099;-71
2021/01/01 05:57:17;;;;;;;2.53;1.83;;;3.10;79.60;;;;;;5077242;28;20077;-71
2021/01/01 05:59:45;;;;;;;3.40;1.95;;;3.00;80.30;;;;;;5059567;28;20086;-71
2021/01/01 06:02:12;;;;;;;2.70;1.65;;;3.00;80.90;;;;;;5077249;28;20111;-71
2021/01/01 06:04:39;;;;;;;2.25;1.85;;;3.10;81.40;;;;;;5077109;28;20479;-71
2021/01/01 06:07:09;;;;;;;2.42;1.50;;;3.00;82.10;;;;;;5077159;28;20036;-71
2021/01/01 06:09:36;;;;;;;2.75;1.73;;;3.00;83.00;;;;;;5077098;28;20032;-71
2021/01/01 06:12:11;;;;;;;3.95;1.63;;;3.00;83.60;;;;;;5077090;28;20344;-71
2021/01/01 06:14:45;;;;;;;3.08;2.20;;;3.00;83.10;;;;;;5077038;28;20435;-71
2021/01/01 06:17:11;;;;;;;2.63;1.80;;;3.00;83.30;;;;;;5077185;28;20039;-71
2021/01/01 06:19:44;;;;;;;2.15;1.55;;;2.90;84.10;;;;;;5076954;28;20021;-71
2021/01/01 06:22:22;;;;;;;3.20;2.17;;;2.80;84.60;;;;;;5059216;28;20484;-71
2021/01/01 06:24:53;;;;;;;2.50;1.80;;;2.70;83.30;;;;;;5077343;28;20079;-71
2021/01/01 06:27:22;;;;;;;6.55;2.10;;;2.70;83.10;;;;;;5076782;28;20416;-71
2021/01/01 06:29:53;;;;;;;3.13;1.85;;;2.70;83.40;;;;;;5076748;28;20085;-71
2021/01/01 06:32:20;;;;;;;3.63;1.80;;;2.60;84.40;;;;;;5077118;28;20036;-71
2021/01/01 06:34:47;;;;;;;9.48;4.68;;;2.60;85.00;;;;;;5077007;28;20320;-71
2021/01/01 06:37:38;;;;;;;17.00;8.70;;;2.60;85.40;;;;;;5076698;28;20028;-71
2021/01/01 06:40:06;;;;;;;12.38;6.28;;;2.70;85.60;;;;;;5076690;28;20016;-71
2021/01/01 06:43:02;;;;;;;8.05;4.20;;;2.70;85.50;;;;;;5076752;28;20039;-71
2021/01/01 06:45:41;;;;;;;8.27;5.40;;;2.80;85.90;;;;;;5075028;28;20059;-71
2021/01/01 06:48:12;;;;;;;9.52;6.22;;;2.80;85.90;;;;;;5076396;28;20028;-71
2021/01/01 06:50:40;;;;;;;10.55;4.55;;;2.90;84.40;;;;;;5076862;28;20078;-71
2021/01/01 06:53:11;;;;;;;6.47;3.70;;;3.00;85.10;;;;;;5076671;28;20100;-71
2021/01/01 06:55:46;;;;;;;5.95;3.78;;;3.00;85.80;;;;;;5081136;28;20024;-71
2021/01/01 06:58:12;;;;;;;4.75;3.03;;;3.00;86.00;;;;;;5065472;28;20020;-71
2021/01/01 07:00:50;;;;;;;4.30;3.17;;;3.00;85.30;;;;;;5083139;28;20025;-71
2021/01/01 07:03:36;;;;;;;3.90;3.00;;;3.10;83.90;;;;;;5083346;28;20063;-71
2021/01/01 07:06:02;;;;;;;4.28;3.13;;;3.10;84.60;;;;;;5083171;28;20024;-71
2021/01/01 07:08:39;;;;;;;3.70;2.22;;;3.20;83.20;;;;;;5083117;28;20081;-71
2021/01/01 07:11:08;;;;;;;4.40;2.83;;;3.20;84.10;;;;;;5083375;28;20324;-71
2021/01/01 07:13:48;;;;;;;4.10;2.88;;;3.20;84.30;;;;;;5083486;28;20106;-71
2021/01/01 07:16:17;;;;;;;5.00;3.35;;;3.10;84.20;;;;;;5083243;28;20028;-71
2021/01/01 07:18:42;;;;;;;4.95;3.47;;;3.20;84.60;;;;;;5065289;28;20032;-71
2021/01/01 07:21:15;;;;;;;4.80;3.95;;;3.20;84.60;;;;;;5065278;28;20348;-71
2021/01/01 07:23:41;;;;;;;5.05;3.65;;;3.20;84.80;;;;;;5082965;28;20032;-71
2021/01/01 07:26:08;;;;;;;3.97;3.25;;;3.20;85.50;;;;;;5082911;28;20025;-71
2021/01/01 07:28:34;;;;;;;3.72;2.50;;;3.30;84.50;;;;;;5083185;28;20035;-71
2021/01/01 07:30:59;;;;;;;2.25;1.30;;;3.30;83.30;;;;;;5082824;28;20408;-71
2021/01/01 07:33:30;;;;;;;1.60;1.05;;;3.40;80.40;;;;;;5082882;28;20078;-71
2021/01/01 07:36:03;;;;;;;5.78;4.13;;;3.50;78.20;;;;;;5083058;28;20078;-71
2021/01/01 07:38:35;;;;;;;4.05;3.35;;;3.70;79.80;;;;;;5065131;28;20104;-71
2021/01/01 07:41:01;;;;;;;4.82;3.63;;;3.80;79.70;;;;;;5065148;28;20044;-71
2021/01/01 07:43:27;;;;;;;5.57;4.00;;;3.80;80.50;;;;;;5083289;28;20365;-71
2021/01/01 07:46:04;;;;;;;12.68;7.70;;;3.90;81.50;;;;;;5082789;28;20044;-71
2021/01/01 07:48:30;;;;;;;3.17;1.55;;;3.80;81.20;;;;;;5082555;28;20052;-71
2021/01/01 07:51:14;;;;;;;1.83;1.05;;;3.80;79.20;;;;;;5065004;28;20051;-71
2021/01/01 07:53:40;;;;;;;2.10;0.90;;;3.70;75.20;;;;;;5083085;28;20462;-71
2021/01/01 07:56:08;;;;;;;2.55;1.30;;;3.70;76.40;;;;;;5082591;28;20032;-71
2021/01/01 07:58:34;;;;;;;1.88;0.95;;;3.70;76.90;;;;;;5082674;28;20024;-71
2021/01/01 08:01:10;;;;;;;1.90;1.23;;;3.70;75.50;;;;;;5082672;28;20029;-71
2021/01/01 08:03:38;;;;;;;1.40;0.88;;;3.70;74.60;;;;;;5082690;28;20033;-71
2021/01/01 08:06:06;;;;;;;1.95;1.00;;;3.70;73.30;;;;;;5081961;28;20036;-71
2021/01/01 08:08:32;;;;;;;2.13;1.33;;;3.70;73.30;;;;;;5079416;28;20029;-70
2021/01/01 08:10:58;;;;;;;1.88;1.10;;;3.80;72.60;;;;;;5079651;28;20029;-71
2021/01/01 08:13:31;;;;;;;4.22;1.30;;;3.70;72.80;;;;;;5079378;28;20107;-71
2021/01/01 08:16:13;;;;;;;3.72;1.05;;;3.70;72.30;;;;;;5079618;28;20127;-71
2021/01/01 08:18:39;;;;;;;2.10;1.20;;;3.70;73.20;;;;;;5079383;28;20478;-71
2021/01/01 08:21:06;;;;;;;5.15;3.67;;;3.70;75.30;;;;;;5079196;28;20025;-71
2021/01/01 08:23:56;;;;;;;4.43;3.60;;;3.80;77.70;;;;;;5061402;28;20027;-71
2021/01/01 08:26:22;;;;;;;10.75;3.50;;;3.90;79.70;;;;;;5079408;28;20036;-71
2021/01/01 08:28:51;;;;;;;4.60;3.10;;;3.90;81.00;;;;;;5079044;28;20033;-71
2021/01/01 08:31:20;;;;;;;6.25;3.50;;;3.90;80.90;;;;;;5079022;28;20028;-71
2021/01/01 08:33:50;;;;;;;4.97;2.58;;;4.00;81.30;;;;;;5079266;28;20029;-71
2021/01/01 08:36:16;;;;;;;4.55;2.80;;;4.00;82.20;;;;;;5079379;28;20035;-71
2021/01/01 08:38:47;;;;;;;3.63;2.70;;;4.00;82.40;;;;;;5079065;28;20095;-71
2021/01/01 08:41:17;;;;;;;7.00;3.00;;;4.00;81.00;;;;;;5079137;28;20023;-71
2021/01/01 08:43:43;;;;;;;3.75;2.45;;;4.00;82.20;;;;;;5078990;28;20023;-71
2021/01/01 08:46:17;;;;;;;3.20;2.65;;;4.00;81.80;;;;;;5078660;28;20478;-71
2021/01/01 08:48:42;;;;;;;3.67;2.83;;;4.10;80.60;;;;;;5060760;28;20048;-71
2021/01/01 08:51:08;;;;;;;4.82;2.90;;;4.10;82.10;;;;;;5078671;28;20086;-71
2021/01/01 08:53:41;;;;;;;3.63;2.65;;;4.10;83.00;;;;;;5078973;28;20420;-71
2021/01/01 08:56:07;;;;;;;3.50;2.38;;;4.20;83.00;;;;;;5078463;28;20083;-71
2021/01/01 08:58:33;;;;;;;3.55;2.63;;;4.20;82.50;;;;;;5078492;28;20049;-71
2021/01/01 09:01:15;;;;;;;3.17;2.60;;;4.30;83.20;;;;;;5060790;28;20053;-71
2021/01/01 09:03:42;;;;;;;3.58;2.15;;;4.30;80.90;;;;;;5078448;28;20312;-71
2021/01/01 09:06:16;;;;;;;3.53;2.58;;;4.40;81.10;;;;;;5078316;28;20107;-71
2021/01/01 09:08:42;;;;;;;3.13;2.83;;;4.50;77.80;;;;;;5078456;28;20324;-71
2021/01/01 09:11:22;;;;;;;2.70;2.10;;;4.50;80.50;;;;;;5060540;28;20028;-71
2021/01/01 09:14:04;;;;;;;3.25;2.22;;;4.50;79.40;;;;;;5078363;28;20099;-71
2021/01/01 09:16:30;;;;;;;6.25;4.57;;;4.60;79.90;;;;;;5078091;28;20035;-71
2021/01/01 09:19:08;;;;;;;4.50;3.45;;;4.60;80.10;;;;;;5077582;28;20021;-71
2021/01/01 09:21:33;;;;;;;4.80;3.25;;;4.70;79.30;;;;;;5078093;28;20024;-71
2021/01/01 09:23:59;;;;;;;6.88;3.00;;;4.70;79.80;;;;;;5078236;28;20423;-71
2021/01/01 09:26:27;;;;;;;3.42;2.72;;;4.70;78.80;;;;;;5060210;28;20028;-71
2021/01/01 09:29:07;;;;;;;4.35;3.10;;;4.70;79.50;;;;;;5077930;28;20024;-71
2021/01/01 09:31:34;;;;;;;5.15;3.20;;;4.80;80.60;;;;;;5077821;28;20035;-71
2021/01/01 09:34:02;;;;;;;4.53;3.10;;;4.90;81.50;;;;;;5078008;28;20017;-71
2021/01/01 09:36:38;;;;;;;5.05;3.28;;;4.90;80.30;;;;;;5077947;28;20049;-71
2021/01/01 09:39:07;;;;;;;5.47;3.03;;;4.90;79.10;;;;;;5077880;28;20406;-71
2021/01/01 09:41:37;;;;;;;3.28;2.75;;;5.00;81.20;;;;;;5077613;28;20025;-71
2021/01/01 09:44:03;;;;;;;4.13;3.05;;;5.00;80.20;;;;;;5059912;28;20017;-71
2021/01/01 09:46:29;;;;;;;13.20;10.50;;;5.10;78.00;;;;;;5059850;28;20029;-71
2021/01/01 09:48:55;;;;;;;6.00;5.03;;;5.10;78.80;;;;;;5077322;28;20041;-71
2021/01/01 09:51:20;;;;;;;5.18;4.50;;;5.10;79.50;;;;;;5077476;28;20028;-71
2021/01/01 09:53:46;;;;;;;4.50;3.80;;;5.10;79.80;;;;;;5077656;28;20055;-71
2021/01/01 09:56:12;;;;;;;4.10;3.25;;;5.10;80.20;;;;;;5077275;28;20052;-71
2021/01/01 09:58:37;;;;;;;6.50;4.30;;;5.20;78.30;;;;;;5059542;28;20024;-71
2021/01/01 10:01:03;;;;;;;5.72;4.72;;;5.30;78.20;;;;;;5077377;28;20020;-71
2021/01/01 10:03:29;;;;;;;5.43;3.92;;;5.30;80.60;;;;;;5077373;28;20062;-71
2021/01/01 10:05:54;;;;;;;5.15;3.97;;;5.20;78.80;;;;;;5077126;28;20352;-71
2021/01/01 10:08:20;;;;;;;5.25;3.85;;;5.10;78.80;;;;;;5063249;28;20024;-71
2021/01/01 10:10:47;;;;;;;4.82;3.45;;;5.10;79.30;;;;;;5086063;28;20025;-71
2021/01/01 10:13:13;;;;;;;5.60;3.97;;;5.10;78.70;;;;;;5077072;28;20069;-71
2021/01/01 10:15:39;;;;;;;3.72;3.03;;;5.10;76.80;;;;;;5077218;28;20063;-71
2021/01/01 10:18:05;;;;;;;4.05;2.97;;;5.00;77.20;;;;;;5076896;28;20325;-71
2021/01/01 10:20:31;;;;;;;6.03;3.15;;;4.90;77.50;;;;;;5076992;28;20027;-71
2021/01/01 10:22:57;;;;;;;4.45;3.10;;;4.80;76.50;;;;;;5077046;28;20089;-71
2021/01/01 10:25:24;;;;;;;4.20;3.47;;;4.80;77.90;;;;;;5076813;28;20032;-71
2021/01/01 10:27:49;;;;;;;4.57;3.20;;;4.90;79.90;;;;;;5076791;28;20427;-71
2021/01/01 10:30:15;;;;;;;5.18;3.30;;;4.90;80.00;;;;;;5076036;28;20024;-71
2021/01/01 10:32:41;;;;;;;4.50;3.40;;;5.00;80.80;;;;;;5077264;28;20031;-71
2021/01/01 10:35:08;;;;;;;3.67;2.95;;;5.10;79.50;;;;;;5076789;28;20111;-71
2021/01/01 10:37:33;;;;;;;4.25;3.13;;;5.20;78.90;;;;;;5059061;28;20332;-71
2021/01/01 10:39:59;;;;;;;3.33;2.50;;;5.30;78.40;;;;;;5059029;28;20024;-71
2021/01/01 10:42:27;;;;;;;3.05;1.90;;;5.50;78.10;;;;;;5076664;28;20024;-71
2021/01/01 10:44:52;;;;;;;3.35;1.77;;;5.50;75.50;;;;;;5076918;28;20375;-71
2021/01/01 10:47:18;;;;;;;1.75;0.98;;;5.30;77.50;;;;;;5076939;28;20055;-71
2021/01/01 10:49:44;;;;;;;1.80;0.98;;;5.20;75.40;;;;;;5058685;28;20375;-71
2021/01/01 10:52:10;;;;;;;1.75;1.20;;;5.20;76.50;;;;;;5059278;28;20117;-71
2021/01/01 10:54:36;;;;;;;1.77;1.10;;;5.20;76.70;;;;;;5059015;28;20033;-71
2021/01/01 10:57:02;;;;;;;2.72;2.30;;;5.30;77.80;;;;;;5076701;28;20099;-71
2021/01/01 10:59:27;;;;;;;5.22;3.00;;;5.30;79.60;;;;;;5076455;28;20412;-71
2021/01/01 11:01:54;;;;;;;4.43;3.40;;;5.40;80.00;;;;;;5076826;28;20020;-71
2021/01/01 11:04:20;;;;;;;4.60;2.95;;;5.40;79.10;;;;;;5076548;28;20021;-71
2021/01/01 11:06:45;;;;;;;4.97;2.92;;;5.50;79.70;;;;;;5076577;28;20365;-71
2021/01/01 11:09:11;;;;;;;5.43;3.17;;;5.70;78.90;;;;;;5076472;28;20373;-71
2021/01/01 11:11:37;;;;;;;3.15;2.75;;;5.70;78.20;;;;;;5076449;28;20412;-71
2021/01/01 11:14:16;;;;;;;4.72;2.88;;;5.70;79.20;;;;;;5076433;28;20099;-71
2021/01/01 12:25:14;;;;;;;2.50;0.60;;;4.40;86.80;;;;;;5079495;28;20055;-71
2021/01/01 12:27:42;;;;;;;1.58;0.45;;;4.40;87.80;;;;;;5079387;28;20023;-71
2021/01/01 12:30:09;;;;;;;1.05;0.30;;;4.50;87.90;;;;;;5079061;28;20035;-71
2021/01/01 12:32:38;;;;;;;0.60;0.40;;;4.60;87.80;;;;;;5079078;28;20028;-71
2021/01/01 12:35:04;;;;;;;0.75;0.40;;;4.70;87.30;;;;;;5078965;28;20404;-71
2021/01/01 12:37:29;;;;;;;0.55;0.38;;;4.70;86.30;;;;;;5078803;28;20020;-71
2021/01/01 12:39:55;;;;;;;3.38;2.08;;;4.80;87.60;;;;;;5078867;28;20020;-71
2021/01/01 12:42:21;;;;;;;3.30;2.83;;;4.90;88.30;;;;;;5061111;28;20112;-71
2021/01/01 12:44:47;;;;;;;3.72;2.70;;;4.90;89.10;;;;;;5078837;28;20017;-71
2021/01/01 12:47:13;;;;;;;3.05;2.45;;;4.90;89.10;;;;;;5079100;28;20324;-71
2021/01/01 12:49:39;;;;;;;0.43;0.30;;;5.00;89.50;;;;;;5078509;28;20061;-71
2021/01/01 12:52:06;;;;;;;1.13;0.40;;;4.90;87.00;;;;;;5078220;28;20025;-71
2021/01/01 12:54:32;;;;;;;0.73;0.40;;;4.90;85.30;;;;;;5060664;28;20324;-71
2021/01/01 12:56:57;;;;;;;1.23;0.50;;;4.80;86.00;;;;;;5078566;28;20028;-71
2021/01/01 12:59:23;;;;;;;0.68;0.40;;;4.70;86.70;;;;;;5078535;28;20479;-71
2021/01/01 13:01:48;;;;;;;0.32;0.28;;;4.80;86.70;;;;;;5078478;28;20365;-71
2021/01/01 13:04:14;;;;;;;1.25;0.28;;;4.80;87.40;;;;;;5060559;28;20070;-71
2021/01/01 13:06:40;;;;;;;0.35;0.20;;;4.90;87.90;;;;;;5078384;28;20419;-71
2021/01/01 13:09:06;;;;;;;1.35;0.40;;;4.90;88.30;;;;;;5078348;28;20028;-71
2021/01/01 13:11:31;;;;;;;0.43;0.20;;;4.90;89.00;;;;;;5078296;28;20031;-71
2021/01/01 13:13:58;;;;;;;0.63;0.40;;;5.00;88.80;;;;;;5078474;28;20040;-71
2021/01/01 13:16:25;;;;;;;2.13;0.22;;;5.00;89.90;;;;;;5078149;28;20039;-71
2021/01/01 13:18:52;;;;;;;1.95;0.47;;;5.10;89.90;;;;;;5078116;28;20024;-71
2021/01/01 13:21:28;;;;;;;3.83;0.60;;;5.10;90.20;;;;;;5078274;28;20447;-71
2021/01/01 13:23:54;;;;;;;0.52;0.32;;;5.10;90.60;;;;;;5078451;28;20029;-71
2021/01/01 13:26:24;;;;;;;1.30;0.35;;;5.20;90.90;;;;;;5077872;28;20119;-71
2021/01/01 13:28:51;;;;;;;3.05;2.15;;;5.20;89.60;;;;;;5077910;28;20347;-71
2021/01/01 13:31:17;;;;;;;3.83;2.58;;;5.30;91.30;;;;;;5077861;28;20025;-71
2021/01/01 13:33:43;;;;;;;4.43;2.83;;;5.20;90.80;;;;;;5077826;28;20027;-71
2021/01/01 13:36:17;;;;;;;3.72;2.40;;;5.00;88.60;;;;;;5059964;28;20123;-71
2021/01/01 13:38:44;;;;;;;2.90;2.10;;;4.80;89.20;;;;;;5078016;28;20042;-71
2021/01/01 13:41:10;;;;;;;3.53;2.20;;;4.50;89.90;;;;;;5059976;28;20032;-71
2021/01/01 13:43:44;;;;;;;2.60;1.80;;;4.40;91.50;;;;;;5077705;28;20086;-71
2021/01/01 13:46:20;;;;;;;2.45;1.77;;;4.40;92.40;;;;;;5077503;28;20020;-71
2021/01/01 13:48:46;;;;;;;;;;;4.30;93.70;;;;;;5056744;28;20135;-72
2021/01/01 13:51:11;;;;;;;5.10;3.20;;;4.30;94.80;;;;;;5057828;28;20000;-72
2021/01/01 13:53:37;;;;;;;3.03;2.40;;;4.20;95.30;;;;;;5058009;28;20358;-72
2021/01/01 13:56:03;;;;;;;3.28;1.73;;;4.20;96.10;;;;;;5057286;28;20029;-72
2021/01/01 13:58:28;;;;;;;2.03;0.80;;;4.20;96.70;;;;;;5056271;28;20031;-72
2021/01/01 14:00:54;;;;;;;2.35;0.75;;;4.20;96.50;;;;;;5057363;28;20027;-72
2021/01/01 14:03:19;;;;;;;1.35;0.90;;;4.30;96.00;;;;;;5057483;28;20079;-72
2021/01/01 14:05:49;;;;;;;2.90;1.08;;;4.30;95.90;;;;;;5057121;28;20025;-72
2021/01/01 14:08:16;;;;;;;2.33;1.08;;;4.30;95.20;;;;;;5057207;28;20025;-72
2021/01/01 14:10:42;;;;;;;1.40;0.95;;;4.30;93.90;;;;;;5057157;28;20036;-71